createdAt,value
2022-08-26T00:03:19.339Z,96.52
2022-08-26T00:08:21.027Z,97.20
2022-08-26T00:13:22.142Z,97.08
2022-08-26T00:18:23.530Z,97.31
2022-08-26T00:23:27.233Z,97.78
2022-08-26T00:28:30.996Z,98.14
2022-08-26T00:33:32.128Z,98.64
2022-08-26T00:38:35.285Z,98.95
2022-08-26T00:43:46.218Z,98.89
2022-08-26T00:48:53.136Z,99.02
2022-08-26T00:53:59.049Z,99.63
2022-08-26T00:59:05.842Z,99.99
2022-08-26T01:04:08.641Z,100.00
2022-08-26T01:09:09.893Z,100.00
2022-08-26T01:14:12.812Z,100.00
2022-08-26T01:19:36.717Z,100.00
2022-08-26T01:24:39.483Z,100.00
2022-08-26T01:29:43.614Z,100.00
2022-08-26T01:34:46.597Z,100.00
2022-08-26T01:39:53.023Z,100.00
2022-08-26T01:45:00.109Z,100.00
2022-08-26T01:50:06.805Z,100.00
2022-08-26T01:55:11.406Z,100.00
2022-08-26T02:00:13.714Z,100.00
2022-08-26T02:05:21.374Z,100.00
2022-08-26T02:10:23.435Z,100.00
2022-08-26T02:15:25.330Z,100.00
2022-08-26T02:20:26.865Z,100.00
2022-08-26T02:25:40.610Z,100.00
2022-08-26T02:30:42.681Z,100.00
2022-08-26T02:35:44.587Z,100.00
2022-08-26T02:40:45.859Z,100.00
2022-08-26T02:45:49.601Z,100.00
2022-08-26T02:50:51.029Z,100.00
2022-08-26T02:55:52.359Z,100.00
2022-08-26T03:00:53.801Z,100.00
2022-08-26T03:05:56.074Z,100.00
2022-08-26T03:10:57.239Z,100.00
2022-08-26T03:16:00.947Z,100.00
2022-08-26T03:21:14.640Z,100.00
2022-08-26T03:26:16.246Z,100.00
2022-08-26T03:31:17.639Z,100.00
2022-08-26T03:36:19.550Z,100.00
2022-08-26T03:41:21.029Z,100.00
2022-08-26T03:46:22.178Z,100.00
2022-08-26T03:51:23.355Z,100.00
2022-08-26T03:56:26.510Z,100.00
2022-08-26T04:01:29.035Z,100.00
2022-08-26T04:06:44.731Z,100.00
2022-08-26T04:11:47.496Z,100.00
2022-08-26T04:16:54.027Z,100.00
2022-08-26T04:21:56.789Z,100.00
2022-08-26T04:26:57.998Z,100.00
2022-08-26T04:31:59.223Z,100.00
2022-08-26T04:37:01.192Z,100.00
2022-08-26T04:42:02.394Z,99.86
2022-08-26T04:47:04.079Z,99.36
2022-08-26T04:52:05.452Z,98.88
2022-08-26T04:57:06.838Z,98.25
2022-08-26T05:02:08.085Z,97.59
2022-08-26T05:07:10.508Z,96.70
2022-08-26T05:12:11.645Z,95.04
2022-08-26T05:17:14.874Z,93.67
2022-08-26T05:22:16.677Z,93.28
2022-08-26T05:27:19.623Z,92.11
2022-08-26T05:32:20.847Z,90.47
2022-08-26T05:37:22.320Z,88.47
2022-08-26T05:42:23.545Z,87.27
2022-08-26T05:47:25.476Z,82.35
2022-08-26T05:52:26.694Z,71.37
2022-08-26T05:57:29.589Z,62.48
2022-08-26T06:02:30.942Z,55.92
2022-08-26T06:07:51.194Z,49.30
2022-08-26T06:12:52.364Z,43.92
2022-08-26T06:17:53.549Z,41.44
2022-08-26T06:23:13.325Z,39.97
2022-08-26T06:28:14.528Z,40.91
2022-08-26T06:33:16.146Z,44.11
2022-08-26T06:38:17.642Z,48.07
2022-08-26T06:43:24.448Z,50.20
2022-08-26T06:48:25.587Z,48.71
2022-08-26T06:53:28.059Z,46.42
2022-08-26T06:58:31.844Z,43.29
2022-08-26T07:03:34.963Z,39.24
2022-08-26T07:08:40.899Z,36.30
2022-08-26T07:13:42.426Z,36.14
2022-08-26T07:18:45.752Z,34.57
2022-08-26T07:23:48.160Z,34.90
2022-08-26T07:28:53.456Z,34.42
2022-08-26T07:33:54.920Z,34.78
2022-08-26T07:38:56.629Z,34.49
2022-08-26T07:43:57.868Z,35.33
2022-08-26T07:49:00.108Z,35.42
2022-08-26T07:54:01.331Z,35.65
2022-08-26T07:59:03.289Z,37.31
2022-08-26T08:04:17.179Z,38.74
2022-08-26T08:09:19.482Z,41.31
2022-08-26T08:14:23.446Z,42.70
2022-08-26T08:19:29.893Z,42.69
2022-08-26T08:24:40.270Z,42.58
2022-08-26T08:29:41.412Z,44.27
2022-08-26T08:39:44.846Z,45.97
2022-08-26T08:44:52.155Z,45.87
2022-08-26T08:49:59.551Z,46.80
2022-08-26T08:55:02.319Z,46.85
2022-08-26T09:00:21.653Z,46.34
2022-08-26T09:05:41.337Z,46.25
2022-08-26T09:10:51.480Z,45.90
2022-08-26T09:16:14.985Z,45.97
2022-08-26T09:21:19.271Z,44.47
2022-08-26T09:26:25.956Z,45.21
2022-08-26T09:31:36.216Z,44.16
2022-08-26T09:36:44.921Z,42.69
2022-08-26T09:42:02.750Z,42.78
2022-08-26T09:47:06.366Z,42.08
2022-08-26T09:52:27.076Z,41.44
2022-08-26T09:57:34.104Z,42.15
2022-08-26T10:02:40.847Z,41.14
2022-08-26T10:07:50.776Z,40.83
2022-08-26T10:13:02.688Z,40.66
2022-08-26T10:18:13.727Z,40.35
2022-08-26T10:23:17.810Z,40.52
2022-08-26T10:28:22.462Z,39.76
2022-08-26T10:33:24.647Z,39.16
2022-08-26T10:38:36.803Z,39.46
2022-08-26T10:43:54.351Z,40.00
2022-08-26T10:49:01.045Z,39.90
2022-08-26T10:54:13.920Z,40.07
2022-08-26T10:59:24.233Z,40.28
2022-08-26T11:04:48.871Z,40.00
2022-08-26T11:09:51.990Z,40.40
2022-08-26T11:14:58.869Z,41.26
2022-08-26T11:20:07.429Z,41.30
2022-08-26T11:25:15.549Z,41.28
2022-08-26T11:30:19.426Z,41.09
2022-08-26T11:35:20.966Z,40.15
2022-08-26T11:40:29.406Z,39.25
2022-08-26T11:45:38.498Z,39.05
2022-08-26T11:50:39.730Z,39.44
2022-08-26T11:55:44.072Z,39.18
2022-08-26T12:00:45.708Z,39.76
2022-08-26T12:05:51.244Z,39.55
2022-08-26T12:11:18.941Z,40.08
2022-08-26T12:16:24.751Z,39.95
2022-08-26T12:21:31.496Z,38.95
2022-08-26T12:26:36.373Z,38.17
2022-08-26T12:31:40.175Z,37.23
2022-08-26T12:36:48.040Z,37.30
2022-08-26T12:41:53.270Z,37.20
2022-08-26T12:47:03.312Z,36.54
2022-08-26T12:52:29.043Z,36.41
2022-08-26T12:57:34.478Z,35.59
2022-08-26T13:02:38.461Z,35.99
2022-08-26T13:07:40.547Z,36.58
2022-08-26T13:12:43.021Z,36.05
2022-08-26T13:17:44.208Z,36.15
2022-08-26T13:22:46.949Z,36.47
2022-08-26T13:27:59.635Z,37.70
2022-08-26T13:33:00.987Z,36.71
2022-08-26T13:38:04.190Z,35.76
2022-08-26T13:43:09.883Z,34.33
2022-08-26T13:48:11.443Z,34.08
2022-08-26T13:53:15.424Z,33.67
2022-08-26T13:58:16.645Z,33.19
2022-08-26T14:03:18.020Z,33.52
2022-08-26T14:08:21.566Z,34.67
2022-08-26T14:13:24.973Z,35.34
2022-08-26T14:18:42.039Z,35.92
2022-08-26T14:23:47.261Z,36.20
2022-08-26T14:28:50.979Z,37.37
2022-08-26T14:33:52.343Z,38.77
2022-08-26T14:39:01.096Z,39.62
2022-08-26T14:44:09.931Z,40.04
2022-08-26T14:49:11.891Z,39.89
2022-08-26T14:54:15.455Z,39.24
2022-08-26T14:59:28.423Z,38.98
2022-08-26T15:04:29.650Z,38.69
2022-08-26T15:09:34.303Z,39.29
2022-08-26T15:14:36.012Z,38.19
2022-08-26T15:19:38.301Z,38.48
2022-08-26T15:24:39.891Z,38.30
2022-08-26T15:29:41.070Z,38.22
2022-08-26T15:34:42.825Z,38.81
2022-08-26T15:39:44.033Z,39.12
2022-08-26T15:44:45.788Z,39.36
2022-08-26T15:49:47.408Z,39.57
2022-08-26T15:54:48.967Z,39.64
2022-08-26T15:59:51.852Z,39.34
2022-08-26T16:04:53.221Z,39.21
2022-08-26T16:09:56.648Z,39.69
2022-08-26T16:14:57.900Z,40.28
2022-08-26T16:19:59.580Z,40.94
2022-08-26T16:25:00.962Z,41.11
2022-08-26T16:30:06.403Z,41.75
2022-08-26T16:35:07.643Z,42.24
2022-08-26T16:40:09.815Z,42.68
2022-08-26T16:45:11.098Z,43.44
2022-08-26T16:50:12.799Z,44.27
2022-08-26T16:55:15.247Z,44.64
2022-08-26T17:00:27.334Z,45.45
2022-08-26T17:05:29.076Z,46.39
2022-08-26T17:10:30.892Z,47.41
2022-08-26T17:15:32.226Z,48.74
2022-08-26T17:20:33.540Z,50.65
2022-08-26T17:25:34.684Z,52.54
2022-08-26T17:30:37.213Z,53.19
2022-08-26T17:35:38.500Z,54.65
2022-08-26T17:40:39.846Z,55.94
2022-08-26T17:45:42.204Z,55.57
2022-08-26T17:50:43.495Z,55.64
2022-08-26T17:55:52.013Z,55.48
2022-08-26T18:00:54.106Z,55.05
2022-08-26T18:05:55.226Z,54.48
2022-08-26T18:10:57.437Z,54.09
2022-08-26T18:15:59.222Z,53.68
2022-08-26T18:21:03.218Z,53.58
2022-08-26T18:26:04.618Z,53.35
2022-08-26T18:31:08.379Z,53.19
2022-08-26T18:36:18.956Z,52.85
2022-08-26T18:41:23.219Z,52.82
2022-08-26T18:46:26.526Z,52.83
2022-08-26T18:51:30.422Z,52.81
2022-08-26T18:56:32.931Z,52.70
2022-08-26T19:01:36.160Z,52.59
2022-08-26T19:06:42.563Z,52.92
2022-08-26T19:11:44.678Z,54.21
2022-08-26T19:16:49.122Z,55.42
2022-08-26T19:21:52.459Z,55.83
2022-08-26T19:26:57.758Z,56.23
2022-08-26T19:31:59.458Z,56.56
2022-08-26T19:37:00.631Z,56.95
2022-08-26T19:42:01.803Z,57.37
2022-08-26T19:47:04.902Z,58.05
2022-08-26T19:52:06.658Z,58.65
2022-08-26T19:57:07.917Z,59.22
2022-08-26T20:02:11.292Z,59.67
2022-08-26T20:07:18.105Z,60.04
2022-08-26T20:12:20.147Z,60.24
2022-08-26T20:17:22.088Z,60.08
2022-08-26T20:22:24.011Z,60.39
2022-08-26T20:27:37.987Z,60.63
2022-08-26T20:32:41.009Z,60.87
2022-08-26T20:37:42.315Z,60.90
2022-08-26T20:42:44.955Z,61.21
2022-08-26T20:47:46.247Z,61.70
2022-08-26T20:52:47.416Z,61.89
2022-08-26T20:57:48.657Z,62.22
2022-08-26T21:02:49.920Z,62.97
2022-08-26T21:07:51.308Z,63.52
2022-08-26T21:12:52.656Z,63.97
2022-08-26T21:17:53.934Z,64.39
2022-08-26T21:22:55.341Z,64.88
2022-08-26T21:27:56.709Z,65.22
2022-08-26T21:48:17.208Z,66.02
2022-08-26T21:53:19.608Z,66.31
2022-08-26T21:58:20.872Z,66.30
2022-08-26T22:03:22.306Z,66.70
2022-08-26T22:08:23.499Z,67.00
2022-08-26T22:13:36.879Z,67.34
2022-08-26T22:18:40.265Z,67.66
2022-08-26T22:23:42.042Z,68.04
2022-08-26T22:28:43.505Z,68.41
2022-08-26T22:33:45.111Z,68.60
2022-08-26T22:38:46.970Z,68.88
2022-08-26T22:43:48.707Z,69.28
2022-08-26T22:48:53.754Z,69.27
2022-08-26T22:53:55.342Z,69.65
2022-08-26T22:58:56.574Z,69.75
2022-08-26T23:03:57.776Z,70.10
2022-08-26T23:08:59.204Z,70.48
2022-08-26T23:14:06.517Z,70.57
2022-08-26T23:19:11.085Z,70.62
2022-08-26T23:24:13.046Z,70.79
2022-08-26T23:29:15.112Z,70.99
2022-08-26T23:34:34.894Z,71.36
2022-08-26T23:39:36.432Z,71.44
2022-08-26T23:44:38.224Z,71.47
2022-08-26T23:49:39.986Z,71.42
2022-08-26T23:54:41.456Z,71.48
2022-08-26T23:59:42.759Z,71.55
